createdAt,value
2018-10-21T00:00:42.556Z,31.25
2018-10-21T00:03:10.992Z,25.10
2018-10-21T00:05:39.260Z,23.85
2018-10-21T00:08:07.769Z,26.50
2018-10-21T00:10:36.008Z,26.70
2018-10-21T00:13:04.343Z,25.40
2018-10-21T00:15:32.808Z,27.75
2018-10-21T00:18:00.973Z,22.07
2018-10-21T00:20:29.318Z,33.08
2018-10-21T00:22:57.707Z,24.63
2018-10-21T00:25:26.000Z,24.80
2018-10-21T00:27:54.235Z,25.90
2018-10-21T00:30:22.565Z,33.23
2018-10-21T00:32:51.683Z,31.00
2018-10-21T00:35:19.969Z,26.20
2018-10-21T00:37:48.370Z,28.98
2018-10-21T00:40:16.681Z,35.52
2018-10-21T00:42:44.965Z,32.35
2018-10-21T00:45:13.323Z,29.67
2018-10-21T00:47:42.152Z,26.90
2018-10-21T00:50:11.080Z,27.70
2018-10-21T00:52:39.419Z,23.87
2018-10-21T00:55:08.531Z,30.75
2018-10-21T00:57:37.144Z,28.92
2018-10-21T01:00:07.615Z,26.75
2018-10-21T01:02:37.764Z,27.55
2018-10-21T01:05:06.789Z,33.85
2018-10-21T01:07:35.817Z,26.25
2018-10-21T01:10:04.503Z,30.02
2018-10-21T01:12:32.780Z,26.35
2018-10-21T01:15:01.123Z,31.07
2018-10-21T01:17:29.366Z,31.00
2018-10-21T01:19:57.662Z,25.20
2018-10-21T01:22:25.983Z,45.73
2018-10-21T01:24:54.245Z,27.40
2018-10-21T01:27:22.507Z,27.58
2018-10-21T01:29:50.728Z,26.68
2018-10-21T01:32:19.011Z,24.57
2018-10-21T01:34:47.323Z,27.75
2018-10-21T01:37:15.895Z,30.75
2018-10-21T01:40:54.435Z,32.10
2018-10-21T01:43:30.434Z,28.17
2018-10-21T01:45:59.207Z,30.77
2018-10-21T01:48:28.612Z,26.10
2018-10-21T01:50:56.961Z,24.50
2018-10-21T01:53:25.480Z,30.57
2018-10-21T01:55:53.787Z,32.30
2018-10-21T01:58:22.103Z,33.80
2018-10-21T02:00:50.379Z,26.65
2018-10-21T02:03:18.927Z,30.23
2018-10-21T02:05:47.820Z,29.45
2018-10-21T02:08:16.590Z,28.47
2018-10-21T02:10:44.865Z,31.93
2018-10-21T02:13:13.151Z,29.32
2018-10-21T02:15:41.397Z,25.45
2018-10-21T02:18:09.711Z,29.05
2018-10-21T02:20:38.019Z,31.65
2018-10-21T02:23:06.340Z,30.00
2018-10-21T02:25:34.610Z,31.40
2018-10-21T02:28:02.884Z,27.75
2018-10-21T02:30:31.671Z,30.75
2018-10-21T02:33:00.992Z,32.73
2018-10-21T02:35:29.243Z,32.00
2018-10-21T02:37:58.268Z,27.80
2018-10-21T02:41:42.811Z,26.87
2018-10-21T02:44:12.408Z,23.90
2018-10-21T02:46:40.970Z,25.40
2018-10-21T02:49:09.991Z,30.40
2018-10-21T02:51:38.323Z,26.62
2018-10-21T02:54:07.062Z,31.93
2018-10-21T02:56:35.367Z,27.82
2018-10-21T02:59:03.663Z,30.20
2018-10-21T03:01:31.922Z,34.20
2018-10-21T03:04:00.240Z,26.02
2018-10-21T03:06:28.678Z,26.90
2018-10-21T03:08:57.015Z,25.35
2018-10-21T03:11:25.304Z,29.37
2018-10-21T03:13:53.625Z,27.42
2018-10-21T03:16:22.003Z,27.48
2018-10-21T03:18:50.272Z,27.35
2018-10-21T03:21:18.666Z,28.87
2018-10-21T03:23:46.807Z,31.70
2018-10-21T03:26:15.152Z,26.73
2018-10-21T03:28:43.424Z,30.05
2018-10-21T03:31:11.688Z,30.43
2018-10-21T03:33:40.158Z,28.30
2018-10-21T03:36:08.236Z,30.35
2018-10-21T03:38:36.476Z,31.20
2018-10-21T03:41:04.779Z,30.45
2018-10-21T03:43:33.091Z,28.25
2018-10-21T03:46:01.551Z,27.52
2018-10-21T03:48:29.800Z,26.37
2018-10-21T03:50:58.097Z,31.25
2018-10-21T03:53:26.390Z,28.83
2018-10-21T03:55:54.675Z,25.35
2018-10-21T03:58:22.950Z,25.97
2018-10-21T04:00:51.292Z,26.77
2018-10-21T04:03:19.536Z,28.90
2018-10-21T04:05:47.854Z,31.33
2018-10-21T04:08:16.105Z,33.53
2018-10-21T04:10:44.419Z,28.12
2018-10-21T04:13:12.674Z,24.35
2018-10-21T04:15:41.036Z,34.63
2018-10-21T04:18:09.390Z,24.45
2018-10-21T04:20:37.764Z,24.05
2018-10-21T04:23:06.150Z,30.57
2018-10-21T04:25:35.519Z,30.80
2018-10-21T04:28:04.319Z,29.90
2018-10-21T04:30:34.407Z,29.32
2018-10-21T04:33:11.929Z,23.85
2018-10-21T04:35:40.255Z,24.85
2018-10-21T04:38:26.937Z,27.02
2018-10-21T04:40:55.205Z,31.07
2018-10-21T04:43:23.469Z,27.85
2018-10-21T04:45:51.770Z,29.85
2018-10-21T04:48:20.100Z,24.30
2018-10-21T04:50:48.427Z,22.98
2018-10-21T04:53:16.724Z,23.20
2018-10-21T04:55:46.117Z,29.02
2018-10-21T04:58:14.549Z,22.07
2018-10-21T05:00:42.975Z,27.95
2018-10-21T05:03:11.203Z,21.40
2018-10-21T05:05:39.456Z,29.52
2018-10-21T05:08:07.791Z,26.70
2018-10-21T05:10:37.071Z,26.45
2018-10-21T05:13:06.164Z,29.52
2018-10-21T05:15:35.642Z,26.93
2018-10-21T05:18:03.943Z,27.93
2018-10-21T05:20:32.245Z,24.23
2018-10-21T05:23:00.555Z,29.55
2018-10-21T05:25:28.842Z,30.82
2018-10-21T05:27:57.084Z,27.70
2018-10-21T05:30:25.407Z,24.35
2018-10-21T05:32:53.722Z,25.60
2018-10-21T05:35:22.191Z,28.02
2018-10-21T05:37:50.535Z,22.02
2018-10-21T05:40:20.120Z,27.75
2018-10-21T05:42:48.663Z,26.95
2018-10-21T05:45:16.952Z,25.52
2018-10-21T05:47:45.220Z,26.52
2018-10-21T05:50:14.471Z,26.07
2018-10-21T05:52:43.195Z,29.12
2018-10-21T05:55:12.259Z,25.27
2018-10-21T05:57:40.701Z,26.25
2018-10-21T06:00:12.228Z,25.65
2018-10-21T06:02:40.512Z,24.98
2018-10-21T06:05:20.332Z,24.63
2018-10-21T06:07:48.616Z,25.68
2018-10-21T06:10:16.915Z,25.23
2018-10-21T06:12:45.213Z,24.90
2018-10-21T06:15:13.617Z,36.58
2018-10-21T06:17:41.941Z,25.72
2018-10-21T06:20:15.433Z,28.38
2018-10-21T06:22:45.535Z,21.15
2018-10-21T06:25:13.831Z,30.85
2018-10-21T06:27:42.128Z,27.85
2018-10-21T06:30:11.817Z,27.22
2018-10-21T06:32:40.136Z,25.48
2018-10-21T06:35:09.266Z,22.05
2018-10-21T06:37:37.655Z,23.62
2018-10-21T06:40:07.485Z,26.73
2018-10-21T06:42:35.732Z,26.42
2018-10-21T06:45:04.118Z,26.52
2018-10-21T06:47:32.565Z,25.40
2018-10-21T06:50:01.000Z,28.42
2018-10-21T06:52:29.279Z,23.60
2018-10-21T06:54:57.598Z,23.83
2018-10-21T06:57:26.053Z,26.97
2018-10-21T06:59:54.261Z,29.15
2018-10-21T07:02:22.540Z,24.98
2018-10-21T07:04:50.865Z,24.32
2018-10-21T07:07:19.100Z,27.75
2018-10-21T07:09:47.354Z,22.30
2018-10-21T07:12:15.587Z,22.13
2018-10-21T07:14:43.961Z,24.23
2018-10-21T07:17:12.223Z,24.92
2018-10-21T07:19:40.528Z,20.02
2018-10-21T07:22:08.923Z,18.05
2018-10-21T07:24:37.237Z,23.50
2018-10-21T07:27:05.684Z,24.15
2018-10-21T07:29:33.945Z,22.45
2018-10-21T07:32:02.240Z,18.95
2018-10-21T07:34:30.519Z,24.20
2018-10-21T07:36:58.824Z,29.95
2018-10-21T07:39:27.097Z,21.55
2018-10-21T07:41:55.504Z,26.52
2018-10-21T07:44:23.783Z,22.20
2018-10-21T07:46:52.107Z,20.97
2018-10-21T07:49:20.471Z,29.77
2018-10-21T07:51:48.792Z,22.25
2018-10-21T07:54:17.136Z,21.00
2018-10-21T07:56:45.398Z,22.55
2018-10-21T07:59:13.733Z,26.65
2018-10-21T08:01:42.115Z,30.30
2018-10-21T08:04:10.465Z,27.55
2018-10-21T08:06:50.097Z,24.20
2018-10-21T08:09:18.385Z,24.65
2018-10-21T08:11:47.092Z,29.60
2018-10-21T08:14:16.149Z,23.45
2018-10-21T08:16:45.548Z,25.27
2018-10-21T08:19:13.903Z,27.48
2018-10-21T08:21:42.155Z,27.87
2018-10-21T08:24:10.439Z,28.57
2018-10-21T08:26:38.718Z,29.98
2018-10-21T08:29:06.980Z,27.95
2018-10-21T08:31:35.312Z,26.90
2018-10-21T08:34:03.636Z,25.30
2018-10-21T08:36:31.909Z,34.05
2018-10-21T08:39:02.814Z,30.75
2018-10-21T08:45:22.199Z,33.67
2018-10-21T08:47:50.877Z,30.55
2018-10-21T08:50:19.722Z,30.00
2018-10-21T08:52:52.332Z,29.45
2018-10-21T08:55:56.602Z,30.75
2018-10-21T08:58:29.443Z,26.90
2018-10-21T09:00:58.772Z,25.80
2018-10-21T09:03:33.981Z,33.20
2018-10-21T09:06:02.348Z,33.58
2018-10-21T09:08:30.722Z,63.45
2018-10-21T09:10:59.635Z,40.98
2018-10-21T09:13:49.782Z,41.37
2018-10-21T09:16:18.225Z,70.55
2018-10-21T09:18:46.427Z,43.17
2018-10-21T09:21:14.774Z,36.38
2018-10-21T09:23:43.480Z,43.15
2018-10-21T09:26:11.756Z,36.93
2018-10-21T09:28:40.037Z,30.00
2018-10-21T09:31:14.642Z,41.98
2018-10-21T09:33:42.855Z,37.53
2018-10-21T09:36:11.163Z,35.08
2018-10-21T09:38:52.236Z,39.25
2018-10-21T09:41:27.360Z,34.58
2018-10-21T09:55:59.338Z,49.80
2018-10-21T09:58:31.060Z,39.23
2018-10-21T10:01:10.312Z,37.83
2018-10-21T10:03:53.922Z,35.28
2018-10-21T10:06:39.928Z,34.67
2018-10-21T10:09:18.391Z,34.10
2018-10-21T10:12:08.128Z,37.95
2018-10-21T10:28:10.872Z,32.00
2018-10-21T10:30:39.370Z,33.50
2018-10-21T10:33:07.865Z,28.70
2018-10-21T10:35:36.625Z,29.72
2018-10-21T10:38:05.736Z,25.57
2018-10-21T10:40:34.019Z,37.90
2018-10-21T10:43:02.772Z,27.75
2018-10-21T10:45:31.159Z,28.35
2018-10-21T10:47:59.607Z,34.53
2018-10-21T10:50:28.212Z,31.05
2018-10-21T10:52:56.540Z,26.93
2018-10-21T10:55:30.067Z,32.58
2018-10-21T10:57:58.569Z,22.17
2018-10-21T11:00:26.918Z,30.17
2018-10-21T11:02:55.240Z,33.70
2018-10-21T11:05:23.559Z,26.30
2018-10-21T11:07:51.879Z,39.15
2018-10-21T11:10:20.286Z,23.80
2018-10-21T11:12:48.636Z,22.70
2018-10-21T11:15:17.118Z,20.08
2018-10-21T11:17:45.976Z,21.23
2018-10-21T11:20:14.478Z,21.73
2018-10-21T11:22:43.097Z,19.85
2018-10-21T11:25:11.566Z,18.98
2018-10-21T11:27:49.635Z,16.85
2018-10-21T11:30:18.728Z,17.90
2018-10-21T11:32:47.496Z,21.97
2018-10-21T11:35:15.945Z,17.70
2018-10-21T11:37:44.614Z,22.67
2018-10-21T11:40:13.119Z,19.75
2018-10-21T11:42:42.312Z,17.32
2018-10-21T11:45:10.857Z,23.57
2018-10-21T11:47:39.931Z,18.75
2018-10-21T11:50:08.452Z,16.37
2018-10-21T11:52:36.849Z,15.18
2018-10-21T11:55:06.969Z,23.70
2018-10-21T11:57:35.328Z,12.37
2018-10-21T12:00:03.736Z,18.90
2018-10-21T12:02:32.497Z,18.17
2018-10-21T12:05:00.868Z,20.68
2018-10-21T12:07:29.288Z,16.07
2018-10-21T12:10:21.624Z,21.80
2018-10-21T12:19:10.431Z,15.58
2018-10-21T12:24:40.947Z,19.20
2018-10-21T12:27:25.798Z,17.20
2018-10-21T12:29:55.296Z,17.32
2018-10-21T12:36:59.407Z,15.10
2018-10-21T12:39:37.522Z,11.80
2018-10-21T12:42:30.366Z,12.23
2018-10-21T12:45:09.867Z,13.13
2018-10-21T12:47:47.905Z,12.70
2018-10-21T12:50:23.883Z,11.97
2018-10-21T12:52:52.958Z,14.75
2018-10-21T12:55:21.725Z,19.75
2018-10-21T12:57:54.909Z,11.78
2018-10-21T13:00:41.952Z,13.25
2018-10-21T13:03:10.248Z,13.72
2018-10-21T13:05:38.703Z,10.10
2018-10-21T13:08:18.493Z,11.97
2018-10-21T13:10:53.214Z,11.88
2018-10-21T13:13:21.549Z,10.03
2018-10-21T13:15:49.782Z,6.35
2018-10-21T13:18:18.110Z,12.50
2018-10-21T13:20:46.401Z,9.93
2018-10-21T13:23:14.783Z,7.83
2018-10-21T13:25:43.075Z,13.20
2018-10-21T13:28:11.477Z,11.57
2018-10-21T13:30:39.751Z,15.20
2018-10-21T13:33:08.223Z,13.22
2018-10-21T13:35:36.520Z,8.78
2018-10-21T13:38:04.950Z,7.45
2018-10-21T13:40:33.557Z,9.45
2018-10-21T13:43:01.903Z,9.05
2018-10-21T13:45:36.931Z,7.47
2018-10-21T13:48:05.468Z,9.28
2018-10-21T13:50:33.772Z,7.40
2018-10-21T13:53:02.091Z,8.33
2018-10-21T13:55:31.170Z,44.83
2018-10-21T13:57:59.439Z,69.62
2018-10-21T14:00:27.753Z,88.33
2018-10-21T14:02:56.092Z,93.10
2018-10-21T14:05:24.351Z,51.00
2018-10-21T14:07:52.631Z,18.07
2018-10-21T14:10:20.914Z,8.95
2018-10-21T14:12:49.162Z,9.58
2018-10-21T14:15:17.540Z,11.97
2018-10-21T14:17:46.420Z,45.03
2018-10-21T14:20:14.823Z,8.70
2018-10-21T14:22:43.193Z,4.67
2018-10-21T14:25:11.698Z,15.75
2018-10-21T14:27:39.814Z,9.30
2018-10-21T14:30:09.359Z,11.60
2018-10-21T14:32:37.951Z,20.37
2018-10-21T14:35:08.576Z,8.20
2018-10-21T14:37:37.420Z,14.50
2018-10-21T14:40:07.500Z,13.88
2018-10-21T14:42:35.728Z,17.87
2018-10-21T14:45:04.054Z,8.83
2018-10-21T14:47:32.336Z,14.13
2018-10-21T14:50:00.578Z,17.23
2018-10-21T14:52:28.858Z,11.00
2018-10-21T14:54:57.164Z,9.18
2018-10-21T14:57:25.448Z,8.18
2018-10-21T14:59:53.855Z,10.68
2018-10-21T15:02:22.259Z,14.13
2018-10-21T15:04:51.411Z,26.55
2018-10-21T15:07:19.745Z,21.97
2018-10-21T15:09:48.687Z,71.25
2018-10-21T15:12:17.070Z,28.85
2018-10-21T15:14:45.184Z,18.20
2018-10-21T15:17:13.469Z,15.98
2018-10-21T15:19:41.753Z,8.20
2018-10-21T15:22:10.011Z,16.00
2018-10-21T15:24:38.283Z,11.60
2018-10-21T15:27:06.554Z,15.10
2018-10-21T15:29:35.191Z,14.33
2018-10-21T15:32:03.491Z,13.38
2018-10-21T15:34:31.829Z,23.18
2018-10-21T15:37:00.275Z,12.25
2018-10-21T15:39:28.661Z,22.20
2018-10-21T15:41:56.976Z,12.80
2018-10-21T15:44:25.846Z,13.40
2018-10-21T15:46:54.167Z,10.85
2018-10-21T15:49:22.459Z,10.30
2018-10-21T15:51:50.873Z,19.02
2018-10-21T15:54:19.936Z,12.70
2018-10-21T15:56:48.204Z,11.40
2018-10-21T15:59:16.487Z,14.60
2018-10-21T16:01:44.822Z,17.40
2018-10-21T16:04:13.362Z,23.05
2018-10-21T16:06:41.540Z,13.18
2018-10-21T16:09:11.907Z,9.93
2018-10-21T16:11:40.324Z,9.93
2018-10-21T16:14:08.841Z,9.10
2018-10-21T16:16:37.206Z,12.63
2018-10-21T16:19:05.652Z,12.95
2018-10-21T16:21:34.237Z,12.25
2018-10-21T16:24:02.704Z,12.75
2018-10-21T16:26:31.042Z,13.68
2018-10-21T16:28:59.404Z,10.65
2018-10-21T16:31:28.080Z,11.10
2018-10-21T16:33:56.505Z,11.53
2018-10-21T16:36:24.723Z,15.93
2018-10-21T16:38:53.024Z,10.93
2018-10-21T16:41:25.692Z,17.30
2018-10-21T16:43:53.962Z,10.40
2018-10-21T16:46:22.372Z,12.33
2018-10-21T16:48:50.800Z,11.05
2018-10-21T16:51:19.193Z,11.45
2018-10-21T16:53:47.655Z,14.30
2018-10-21T16:56:16.037Z,12.60
2018-10-21T16:58:45.682Z,12.80
2018-10-21T17:01:14.058Z,16.20
2018-10-21T17:03:42.528Z,21.52
2018-10-21T17:06:10.919Z,17.23
2018-10-21T17:08:39.430Z,24.10
2018-10-21T17:11:07.838Z,50.67
2018-10-21T17:13:36.084Z,28.25
2018-10-21T17:16:06.200Z,29.37
2018-10-21T17:18:34.463Z,42.90
2018-10-21T17:21:02.791Z,37.80
2018-10-21T17:23:31.072Z,43.33
2018-10-21T17:25:59.381Z,35.98
2018-10-21T17:28:27.684Z,35.40
2018-10-21T17:30:59.029Z,28.98
2018-10-21T17:33:27.343Z,21.17
2018-10-21T17:35:55.645Z,27.75
2018-10-21T17:38:23.946Z,27.02
2018-10-21T17:40:52.270Z,22.05
2018-10-21T17:43:20.602Z,24.85
2018-10-21T17:45:48.887Z,22.77
2018-10-21T17:48:17.324Z,24.07
2018-10-21T17:50:45.667Z,21.02
2018-10-21T17:53:13.965Z,25.40
2018-10-21T17:55:42.282Z,22.73
2018-10-21T17:58:10.649Z,19.10
2018-10-21T18:00:38.890Z,16.30
2018-10-21T18:03:07.199Z,20.85
2018-10-21T18:05:35.481Z,17.73
2018-10-21T18:08:03.771Z,22.40
2018-10-21T18:10:32.167Z,21.62
2018-10-21T18:13:00.480Z,21.27
2018-10-21T18:15:28.763Z,23.20
2018-10-21T18:17:57.110Z,25.23
2018-10-21T18:20:25.548Z,19.65
2018-10-21T18:22:53.964Z,24.32
2018-10-21T18:25:22.398Z,27.80
2018-10-21T18:27:50.706Z,23.35
2018-10-21T18:30:19.011Z,22.07
2018-10-21T18:32:47.279Z,24.82
2018-10-21T18:35:16.260Z,26.10
2018-10-21T18:37:44.548Z,24.47
2018-10-21T18:40:13.023Z,25.55
2018-10-21T18:42:41.692Z,24.20
2018-10-21T18:45:11.913Z,30.80
2018-10-21T18:47:40.409Z,31.80
2018-10-21T18:50:10.489Z,37.28
2018-10-21T18:52:38.807Z,27.27
2018-10-21T18:55:07.390Z,31.42
2018-10-21T18:57:35.663Z,30.52
2018-10-21T19:00:04.271Z,30.65
2018-10-21T19:02:32.536Z,29.75
2018-10-21T19:05:00.887Z,34.05
2018-10-21T19:07:29.224Z,31.15
2018-10-21T19:09:58.192Z,27.00
2018-10-21T19:12:26.471Z,35.75
2018-10-21T19:14:54.769Z,25.20
2018-10-21T19:17:23.036Z,27.65
2018-10-21T19:19:51.298Z,32.20
2018-10-21T19:22:19.708Z,24.15
2018-10-21T19:24:48.050Z,23.95
2018-10-21T19:27:16.332Z,29.98
2018-10-21T19:29:44.647Z,29.25
2018-10-21T19:32:12.887Z,23.98
2018-10-21T19:34:41.139Z,27.82
2018-10-21T19:37:09.431Z,29.50
2018-10-21T19:39:37.711Z,24.00
2018-10-21T19:42:12.664Z,24.15
2018-10-21T19:44:40.928Z,30.77
2018-10-21T19:47:09.229Z,23.98
2018-10-21T19:49:37.621Z,21.87
2018-10-21T19:52:06.170Z,20.05
2018-10-21T19:54:34.528Z,22.62
2018-10-21T19:57:02.772Z,20.32
2018-10-21T19:59:31.047Z,25.30
2018-10-21T20:01:59.322Z,22.85
2018-10-21T20:04:27.632Z,22.85
2018-10-21T20:06:56.104Z,19.37
2018-10-21T20:09:24.408Z,23.80
2018-10-21T20:11:52.675Z,24.23
2018-10-21T20:14:20.915Z,24.90
2018-10-21T20:16:49.138Z,22.93
2018-10-21T20:19:17.481Z,22.98
2018-10-21T20:21:45.703Z,19.20
2018-10-21T20:24:14.252Z,22.75
2018-10-21T20:29:23.181Z,27.82
2018-10-21T20:31:51.520Z,25.77
2018-10-21T20:34:19.947Z,28.80
2018-10-21T20:36:48.235Z,19.65
2018-10-21T20:39:16.847Z,23.18
2018-10-21T20:41:45.428Z,22.48
2018-10-21T20:44:14.564Z,21.95
2018-10-21T20:46:42.986Z,20.62
2018-10-21T20:49:11.319Z,20.88
2018-10-21T20:51:39.871Z,23.80
2018-10-21T20:54:08.134Z,19.92
2018-10-21T20:56:36.387Z,21.68
2018-10-21T20:59:04.686Z,20.10
2018-10-21T21:01:39.600Z,17.00
2018-10-21T21:04:07.919Z,20.37
2018-10-21T21:06:36.376Z,21.12
2018-10-21T21:09:07.443Z,21.97
2018-10-21T21:11:35.762Z,18.95
2018-10-21T21:14:04.143Z,27.75
2018-10-21T21:16:32.359Z,19.82
2018-10-21T21:19:00.611Z,21.17
2018-10-21T21:21:28.910Z,23.65
2018-10-21T21:23:57.175Z,18.20
2018-10-21T21:26:25.412Z,20.40
2018-10-21T21:28:53.775Z,18.15
2018-10-21T21:31:23.157Z,18.73
2018-10-21T21:33:51.750Z,19.05
2018-10-21T21:36:20.107Z,22.32
2018-10-21T21:38:48.375Z,21.62
2018-10-21T21:41:16.672Z,21.95
2018-10-21T21:43:44.972Z,18.70
2018-10-21T21:46:13.315Z,21.42
2018-10-21T21:48:41.588Z,17.07
2018-10-21T21:51:09.892Z,21.57
2018-10-21T21:53:38.175Z,17.75
2018-10-21T21:56:06.491Z,19.02
2018-10-21T21:58:34.805Z,19.37
2018-10-21T22:01:04.027Z,15.58
2018-10-21T22:03:32.378Z,25.08
2018-10-21T22:06:00.840Z,17.25
2018-10-21T22:08:29.353Z,21.30
2018-10-21T22:10:57.691Z,13.08
2018-10-21T22:13:25.971Z,24.45
2018-10-21T22:15:54.282Z,17.10
2018-10-21T22:18:22.573Z,21.00
2018-10-21T22:20:50.952Z,18.23
2018-10-21T22:23:19.227Z,18.07
2018-10-21T22:25:47.599Z,20.17
2018-10-21T22:28:15.982Z,17.10
2018-10-21T22:30:44.239Z,19.35
2018-10-21T22:33:12.503Z,18.30
2018-10-21T22:35:40.755Z,17.77
2018-10-21T22:38:09.110Z,14.70
2018-10-21T22:40:37.356Z,21.57
2018-10-21T22:43:05.798Z,18.62
2018-10-21T22:45:34.103Z,16.30
2018-10-21T22:48:02.539Z,18.32
2018-10-21T22:50:30.760Z,17.85
2018-10-21T22:52:59.067Z,13.90
2018-10-21T22:55:27.330Z,14.35
2018-10-21T22:57:55.641Z,17.77
2018-10-21T23:00:23.966Z,17.07
2018-10-21T23:02:52.695Z,16.48
2018-10-21T23:05:21.409Z,18.23
2018-10-21T23:07:49.705Z,14.78
2018-10-21T23:10:18.419Z,15.50
2018-10-21T23:12:46.698Z,22.22
2018-10-21T23:15:14.986Z,15.55
2018-10-21T23:17:43.269Z,15.50
2018-10-21T23:20:11.563Z,15.68
2018-10-21T23:22:40.094Z,15.38
2018-10-21T23:25:08.443Z,16.07
2018-10-21T23:27:36.724Z,13.70
2018-10-21T23:30:05.918Z,17.45
2018-10-21T23:32:34.149Z,15.55
2018-10-21T23:35:02.479Z,15.25
2018-10-21T23:37:30.759Z,12.53
2018-10-21T23:39:59.189Z,19.35
2018-10-21T23:42:27.491Z,17.50
2018-10-21T23:44:55.841Z,13.60
2018-10-21T23:47:24.099Z,17.67
2018-10-21T23:49:52.422Z,16.62
2018-10-21T23:52:20.843Z,16.50
2018-10-21T23:54:49.001Z,20.97
2018-10-21T23:57:17.287Z,14.20
2018-10-21T23:59:45.640Z,18.80
